Aérodrome :
LOGIN :

S'inscrire | Disclaimer

   EN    FR    IT 

 










Légende :    VFR   VFR Marginal   IFR   IFR Intensif   IFR Très Intensif
Visi : 
Plafond : 
>= 8 km
>= 3000ft
5 à 8 km
1000 à 3000 ft
1500m à 5 km
500 à 1000 ft
800 à 1500m
200 à 500 ft
< 800m
< 200 ft
Symboles :   Orages  Brouillard  Fortes neiges  Fortes précipitations  Vent > 20 kt
SIGMETs :   Divers  Orages  Givrage  Turbulence  Onde Orograph.  Cendres Volcan.






- Altitude de l'aérodrome : -15 ft
- Code IATA : RTM


EHRD - Rotterdam Zestienhoven

DERNIER METAR :
  • 301625Z AUTO 28010KT 240V310 9999 RA FEW007 SCT009 BKN015CB 14/13 Q1013 TEMPO 6000 BKN012

METARs EXPIRÉS :
  • 301555Z AUTO 25011KT 230V290 9999 RA SCT007 SCT010 BKN013 SCT015CB 15/14 Q1013 NOSIG
  • 301525Z AUTO 27012KT 220V310 9999 -RA FEW014 FEW015CB BKN017 OVC021 16/13 Q1012 REDZRA NOSIG
  • 301455Z AUTO 29010KT 250V010 9999 OVC016 17/14 Q1012 NOSIG
  • 301425Z AUTO 30006KT 250V340 9999 BKN016 OVC019 18/14 Q1012 NOSIG

TAF TAF EHRD
Valide du 30 à 12h jusqu'au 01 à 18h UTC


301120Z 3012/0118 29011KT CAVOK
BECMG 3013/3016 7000 -RA BKN040
TEMPO 3016/3019 4000 RA SCT015 BKN025
BECMG 3019/3022 21008KT 9999 NSW SCT025
PROB30
TEMPO 3019/3024 7000 -RADZ BKN012
BECMG 0109/0112 24014KT
PROB30
TEMPO 0110/0114 7000 -SHRA FEW025CB



MET'MAP, la Météo Aéronautique d'un coup d'oeil ! - Copyright ORBIFLY Décembre 2007 - Disclaimer

ORBIFLY MET'MAP TEAM :

Programmation & Développement : Alexandra Zaïnal
Sur une idée originale de : Baudouin d'Aumeries
Soutien technique & logistique : Manuel Goepfert
Assistance : Marc-Olivier Méhu




SOURCES & CREDITS :

   NOAA